Mount Lucas, Texas
Current Conditions -  °F | °C
As of 3:15 AM on Monday 20 Oct 2014 (Local Time) from KBEA Reporting Station
Clear Clear  
Wind Chill: 68°   Ceiling: Unl
Heat Index: 68°   Visibility: 7mi
Dew Point: 68°   Wind: 3mph
Humidity: 100%   Direction: 60°ENE
Pressure: 29.97"   Gusts: NA
Location:  28.2266°N, 97.9616°W
Report Text: KBEA 200815Z AUTO 06003KT 7SM CLR 20/20 A2997 RMK AO2 T02010201
Loading
Personal Weather Stations






























Interactive Weather Map
Tropical Storm Tracking
New forecast layout! Learn more

10-Day Weather Forecast

Advertisements
Track Severe Weather on mobile